KZROInput File - 15070507/02/2015 7:44:16 PM
STimeDurCatCodeINENameArtist
00:01:0005:39105DA594068FThe RoverLed Zeppelin
00:02:0001:01COMNG2896WW1 Net A SpotWESTWOOD ONE
00:04:0001:01COMNF2895WW1 Net B SpotWESTWOOD ONE
00:06:0006:00COMDALIVEI06:00 StopSet
00:06:0000:05COMVO109500FZLNR-STOPSETZ100FM
00:06:0001:01CADA503400FCROSS PET.Z-REMOTECross Petroleum
00:06:0001:00CADA102000FTACO BELL/KFCTaco Bell/KFC
00:06:0000:30CADA116900FTHE FIFTH SEASONThe Fifth Season
00:06:0001:00CADA507400FZ-LAKE SISQ REMOTE BDCSTLake Sis Grill and Brew
00:06:0000:59COMVO289600NET SPOT A
00:06:0001:00COMDA101200FWKDYSHOPRNITEZ100FM Promo
00:06:0000:10COMVO100100FPM LNGBLK SWPZ100FM
00:10:0004:44107DA222809FSecret Touch [Radio Edit]Rush
00:14:0003:36104DA288230CPride And JoyStevie Ray Vaughan
00:18:0000:15COMVO110200FZ-PM TransitionZ100FM
00:19:0003:32109DA040315FSister HavanaUrge Overkill
00:23:0004:48112DA005312FEvil LouieDeep Purple
00:26:0000:15COMVO110200FZ-PM TransitionZ100FM
00:27:0008:08112DA024259FSweet Emotion Medely [Live][Lyrics!!]Led Zeppelin/Aerosmith
00:30:0001:00COMNB2904WW1 Net Newsbreak BZ100FM/WW1 NEWS
00:31:0001:51114DA002239GoodbyeStabbing Westward
00:35:0006:00COMDALIVEI35:00 StopSet
00:35:0000:05COMVO109500FZLNR-STOPSETZ100FM
00:35:0000:05COMDA100600FZ-WW1NEWS BDZ100FM-WW1 News
00:35:0000:59COMDA290400WW1 NEWSBREAK
00:35:0000:39CADA489600FRON'S FURNITURERon's Furniture
00:35:0000:60CADA102200FCOSCollege of the Siskiyous
00:35:0000:59COMVO289500NET SPOT B
00:40:0000:01COMVO112100FZ-WEATHERZChannel Radio
00:40:0000:29ATWEAX00CZ-WX
00:40:0001:00COMDA101200FWKDYSHOPRNITEZ100FM Promo
00:40:0000:10COMVO100100FPM LNGBLK SWPZ100FM
00:41:0005:23105DA515735CShoot To ThrillAC/DC
00:44:0001:57112DA341100FSunday Afternoon In The ParkVan Halen
00:48:0000:15COMVO110200FZ-PM TransitionZ100FM
00:49:0014:21112DA023948FYours Is No Discrace [Live]Yes
00:52:0001:54110DA039906FJailhouse RockZZ Top
*00:58:00COMVO107400F58:00 KZRO/CR Legal IDZ100FM
01:01:0003:05112DA013400FSolar HeatGamma
01:02:0001:01COMNG2896WW1 Net A SpotWESTWOOD ONE
01:04:0001:01COMNF2895WW1 Net B SpotWESTWOOD ONE
01:06:0006:00COMDALIVEI06:00 StopSet
01:06:0000:05COMVO109500FZLNR-STOPSETZ100FM
01:06:0001:00CADA104000FMT.SHASTA SKI PARKMt. Shasta Ski Park
01:06:0001:00CADA103700FSAY CHEESE PIZZASay Cheese Pizza
01:06:0000:38CADA106800FGREEN HEART COLLECTIVEGreen Heart Collective
01:06:0000:57CADA116800FLAKE SIS. GRILL+BREWLake Sis Grill+Brew
01:06:0000:59COMVO289600NET SPOT A
01:06:0001:00COMDA101200FWKDYSHOPRNITEZ100FM Promo
01:06:0000:10COMVO100100FPM LNGBLK SWPZ100FM
01:10:0004:39106DA685300FCrazy TrainOsbourne, Ozzy
01:14:0004:20104DA300525CWhere You Goin' NowDamn Yankees
01:18:0000:15COMVO110200FZ-PM TransitionZ100FM
01:19:0004:51107DA875834CGrindAlice In Chains
01:23:0004:46106DA657927FLast Night On EarthU2
01:26:0000:15COMVO110200FZ-PM TransitionZ100FM
01:27:0003:27104DA291012FAin't Wastin' Time No MoreAllman Brothers Band, The
01:30:0001:00COMNB2904WW1 Net Newsbreak BZ100FM/WW1 NEWS
01:31:0006:11110DA042940FMiss America [live]Styx
01:35:0006:00COMDALIVEI35:00 StopSet
01:35:0000:05COMVO109500FZLNR-STOPSETZ100FM
01:35:0000:05COMDA100600FZ-WW1NEWS BDZ100FM-WW1 News
01:35:0000:59COMDA290400WW1 NEWSBREAK
01:35:0000:39CADA489600FRON'S FURNITURERon's Furniture
01:35:0000:30CADA102800FNORTHLAND CABLE CO.Northland Communications
01:35:0000:59COMVO289500NET SPOT B
01:40:0000:01COMVO112100FZ-WEATHERZChannel Radio
01:40:0000:29ATWEAX00CZ-WX
01:40:0001:00COMDA101200FWKDYSHOPRNITEZ100FM Promo
01:40:0000:10COMVO100100FPM LNGBLK SWPZ100FM
01:41:0019:05110DA053744FDark Side Of The Moon (Side 1)Pink Floyd
01:44:0000:15COMVO110200FZ-PM TransitionZ100FM
01:48:0002:58112DA044400FMustaphaQueen
01:49:0002:38112DA029027FMisty MountainSilver Apples, The
*01:58:00COMVO107300F58:00 KZRO/CR Legal IDshortZ100FM
02:01:0003:31107DA239824CYou Know You're RightNirvana
02:02:0001:01COMNG2896WW1 Net A SpotWESTWOOD ONE
02:04:0001:01COMNF2895WW1 Net B SpotWESTWOOD ONE
02:06:0006:00COMDALIVEI06:00 StopSet
02:06:0000:05COMVO109500FZLNR-STOPSETZ100FM
02:06:0000:59CADA576200FROUND TABLE BUFFETRound Table Buffet
02:06:0001:00CADA104100FSISQ.COUNTY FIRE CHEIFSSisq. County Fire Cheifs
02:06:0001:00CADA104000FMT.SHASTA SKI PARKMt. Shasta Ski Park
02:06:0000:57CADA116800FLAKE SIS. GRILL+BREWLake Sis Grill+Brew
02:06:0000:59COMVO289600NET SPOT A
02:06:0001:00COMDA101200FWKDYSHOPRNITEZ100FM Promo
02:06:0000:10COMVO100100FPM LNGBLK SWPZ100FM
02:10:0003:31112DA000800COceanShaw. Tommy
02:14:0005:53109DA033300FBig GoodbyeGreat White
02:18:0000:15COMVO110200FZ-PM TransitionZ100FM
02:19:0003:55109DA013600FAll Is ForgivenRed Siren
02:23:0005:19109DA017494FLove SongTesla
02:26:0000:15COMVO110200FZ-PM TransitionZ100FM
02:27:0005:15110DA050221FHannahTrower, Robin
02:30:0001:00COMNB2904WW1 Net Newsbreak BZ100FM/WW1 NEWS
02:31:0005:26109DA022823FSomething To Believe InPoison
02:35:0006:00COMDALIVEI35:00 StopSet
02:35:0000:05COMVO109500FZLNR-STOPSETZ100FM
02:35:0000:05COMDA100600FZ-WW1NEWS BDZ100FM-WW1 News
02:35:0000:59COMDA290400WW1 NEWSBREAK
02:35:0000:30CADA116900FTHE FIFTH SEASONThe Fifth Season
02:35:0000:30CADA107200FEDGEWOOD CUSTOM INTERIORSEdgewood Custom Interiors
02:35:0000:59COMVO289500NET SPOT B
02:40:0000:01COMVO112100FZ-WEATHERZChannel Radio
02:40:0000:29ATWEAX00CZ-WX
02:40:0001:00COMDA101200FWKDYSHOPRNITEZ100FM Promo
02:40:0000:10COMVO100100FPM LNGBLK SWPZ100FM
02:41:0003:53109DA043415FHair Of The DogGuns N' Roses
02:44:0003:52106DA757721CDetroit Rock CityKiss
02:48:0000:15COMVO110200FZ-PM TransitionZ100FM
02:49:0008:25103DA235544CWon't Get Fooled Again [LP Version]Who, The
02:52:0003:56106DA758938CDon't Tread On MeMetallica
02:57:0004:08110DA037507CMe And My BabyTen Years After
*02:58:00COMVO107400F58:00 KZRO/CR Legal IDZ100FM
03:01:0005:55104DA295053CThorn In My PrideBlack Crowes
03:02:0001:01COMNG2896WW1 Net A SpotWESTWOOD ONE
03:04:0001:01COMNF2895WW1 Net B SpotWESTWOOD ONE
03:06:0006:00COMDALIVEI06:00 StopSet
03:06:0000:05COMVO109500FZLNR-STOPSETZ100FM
03:06:0001:00CADA103700FSAY CHEESE PIZZASay Cheese Pizza
03:06:0001:00CADA102400FBROOKS AUTOMOTIVEBrooks Complete Automotive
03:06:0001:00CADA103400FWATERWORKS PARKWaterworks Park
03:06:0001:00CADA104100FSISQ.COUNTY FIRE CHEIFSSisq. County Fire Cheifs
03:06:0000:59COMVO289600NET SPOT A
03:06:0001:00COMDA101200FWKDYSHOPRNITEZ100FM Promo
03:06:0000:10COMVO100100FPM LNGBLK SWPZ100FM
03:10:0003:23109DA027908FTo Be With YouMr. Big
03:14:0004:54109DA038229FSister Of PainNeil, Vince
03:18:0000:15COMVO110200FZ-PM TransitionZ100FM
03:19:0002:57110DA038411CTattooed Love BoysPretenders, The
03:23:0004:59105DA644517CBig EmptyStone Temple Pilots
03:26:0000:15COMVO110200FZ-PM TransitionZ100FM
03:27:0003:24104DA484504CSummertime GirlsY & T
03:30:0001:00COMNB2904WW1 Net Newsbreak BZ100FM/WW1 NEWS
03:31:0006:12112DA006866FSteviePat Travers Band
03:35:0006:00COMDALIVEI35:00 StopSet
03:35:0000:05COMVO109500FZLNR-STOPSETZ100FM
03:35:0000:05COMDA100600FZ-WW1NEWS BDZ100FM-WW1 News
03:35:0000:59COMDA290400WW1 NEWSBREAK
03:35:0001:00CADA104400FCEDAR LANES/ELITE RECedar Lanes/Elite Real Estate
03:35:0000:38CADA106800FGREEN HEART COLLECTIVEGreen Heart Collective
03:35:0000:59COMVO289500NET SPOT B
03:40:0000:01COMVO112100FZ-WEATHERZChannel Radio
03:40:0000:29ATWEAX00CZ-WX
03:40:0001:00COMDA101200FWKDYSHOPRNITEZ100FM Promo
03:40:0000:10COMVO100100FPM LNGBLK SWPZ100FM
03:41:0004:04105DA619918CJailbreakThin Lizzy
03:44:0003:36104DA335422CWind Of ChangeScorpions
03:48:0000:15COMVO110200FZ-PM TransitionZ100FM
03:49:0004:25103DA222111FHere I Go AgainWhitesnake
03:52:0005:36109DA033930FKeep The FaithBon Jovi
03:57:0006:29105DA636000CRocketDef Leppard
*03:58:00COMVO107300F58:00 KZRO/CR Legal IDshortZ100FM
04:01:0006:15112DA036322FThe Lemon SongLed Zeppelin
04:02:0001:01COMNG2896WW1 Net A SpotWESTWOOD ONE
04:04:0001:01COMNF2895WW1 Net B SpotWESTWOOD ONE
04:06:0006:00COMDALIVEI06:00 StopSet
04:06:0000:05COMVO109500FZLNR-STOPSETZ100FM
04:06:0001:00CADA102000FTACO BELL/KFCTaco Bell/KFC
04:06:0001:01CADA503400FCROSS PET.Z-REMOTECross Petroleum
04:06:0001:00CADA103400FWATERWORKS PARKWaterworks Park
04:06:0000:60CADA102200FCOSCollege of the Siskiyous
04:06:0000:59COMVO289600NET SPOT A
04:06:0001:00COMDA101200FWKDYSHOPRNITEZ100FM Promo
04:06:0000:10COMVO100100FPM LNGBLK SWPZ100FM
04:10:0004:04107DA924029FFool For Your StockingsZZ Top
04:14:0006:27111DA010900FWelcome Home [Live}Bachman Turner Overdrive
04:18:0000:15COMVO110200FZ-PM TransitionZ100FM
04:19:0003:00109DA041917CShakin' The BluesScreamin' Cheetah Wheelies
04:23:0003:27105DA516227CUnchainedVan Halen
04:26:0000:15COMVO110200FZ-PM TransitionZ100FM
04:27:0003:50112DA027400FSidewinderMontrose
04:30:0001:00COMNB2904WW1 Net Newsbreak BZ100FM/WW1 NEWS
04:31:0004:06109DA024317FIf You Don't Start Drinkin'Thorogood, George
04:35:0006:00COMDALIVEI35:00 StopSet
04:35:0000:05COMVO109500FZLNR-STOPSETZ100FM
04:35:0000:05COMDA100600FZ-WW1NEWS BDZ100FM-WW1 News
04:35:0000:59COMDA290400WW1 NEWSBREAK
04:35:0000:41CADA103500FSEARS/YREKASears/Yreka
04:35:0000:30CADA105000FELLIS BROOKS HONDAEllis Brooks Honda
04:35:0000:59COMVO289500NET SPOT B
04:40:0000:01COMVO112100FZ-WEATHERZChannel Radio
04:40:0000:29ATWEAX00CZ-WX
04:40:0001:00COMDA101200FWKDYSHOPRNITEZ100FM Promo
04:40:0000:10COMVO100100FPM LNGBLK SWPZ100FM
04:41:0009:41105DA580690CYours Is No DisgraceYes
04:44:0000:15COMVO110200FZ-PM TransitionZ100FM
04:48:0003:53114DA004233Out Of FocusBlue Cheer
04:49:0003:48106DA765819CShameStabbing Westward
04:52:0003:43104DA289327CDirty Deeds Done Dirt CheapAC/DC
04:57:0003:46105DA650917CHail HailPearl Jam
*04:58:00COMVO107400F58:00 KZRO/CR Legal IDZ100FM
05:01:0005:33105DA625908FRoll The BonesRush
05:02:0001:01COMNG2896WW1 Net A SpotWESTWOOD ONE
05:04:0001:01COMNF2895WW1 Net B SpotWESTWOOD ONE
05:06:0006:00COMDALIVEI06:00 StopSet
05:06:0000:05COMVO109500FZLNR-STOPSETZ100FM
05:06:0000:30CADA107200FEDGEWOOD CUSTOM INTERIORSEdgewood Custom Interiors
05:06:0000:30CADA105000FELLIS BROOKS HONDAEllis Brooks Honda
05:06:0001:00CADA507400FZ-LAKE SISQ REMOTE BDCSTLake Sis Grill and Brew
05:06:0001:00CADA102400FBROOKS AUTOMOTIVEBrooks Complete Automotive
05:06:0000:35CADA102100FSTATE FARM INSURANCERuss Porterfield Insurance
05:06:0000:59COMVO289600NET SPOT A
05:06:0001:00COMDA101200FWKDYSHOPRNITEZ100FM Promo
05:06:0000:10COMVO100100FPM LNGBLK SWPZ100FM
05:10:0005:59106DA685711CIron ManBlack Sabbath
05:14:0004:03104DA300307FComing Of AgeDamn Yankees
05:18:0000:15COMVO110200FZ-PM TransitionZ100FM
05:19:0004:08112DA027725FI Stay AwayAlice In Chains
05:23:0002:34111DA016921FFortune Teller [Live]Who, The
05:26:0000:15COMVO110200FZ-PM TransitionZ100FM
05:27:0004:20107DA228110CElectrical StormU2
05:30:0001:00COMNB2904WW1 Net Newsbreak BZ100FM/WW1 NEWS
05:31:0004:48105DA625000CTrademarkJohnson, Eric
05:35:0006:00COMDALIVEI35:00 StopSet
05:35:0000:05COMVO109500FZLNR-STOPSETZ100FM
05:35:0000:05COMDA100600FZ-WW1NEWS BDZ100FM-WW1 News
05:35:0000:59COMDA290400WW1 NEWSBREAK
05:35:0000:41CADA103500FSEARS/YREKASears/Yreka
05:35:0001:00CADA104400FCEDAR LANES/ELITE RECedar Lanes/Elite Real Estate
05:35:0000:59COMVO289500NET SPOT B
05:40:0000:01COMVO112100FZ-WEATHERZChannel Radio
05:40:0000:29ATWEAX00CZ-WX
05:40:0001:00COMDA101200FWKDYSHOPRNITEZ100FM Promo
05:40:0000:10COMVO100100FPM LNGBLK SWPZ100FM
05:41:0008:30110DA043002FCome Sail Away [live]Styx
05:44:0000:15COMVO110200FZ-PM TransitionZ100FM
05:48:0006:10104DA287040FMoney [Long Version]Pink Floyd
05:52:0005:06111DA020500ToadCream
05:57:0003:41109DA034517FIf You're Gonna Love MeJordan, Sass
*05:58:00COMVO107300F58:00 KZRO/Legal ID CLSXZ100FM
06:00:3000:57COMDA332600FUnderground Garage PromoLittle Steven Van Zandt
06:02:0001:01COMNG2896WW1 Net A SpotWESTWOOD ONE
06:02:0026:50511DA000100HRR H1/T1
06:04:0001:01COMNF2895WW1 Net B SpotWESTWOOD ONE
06:27:0002:00COMDALIVEI27:00 StopSet
06:27:0000:05COMVO101300FQUICK-ZZ100FM
06:27:0001:01CADA503400FCROSS PET.Z-REMOTECross Petroleum
06:28:0001:00CADA104000FMT.SHASTA SKI PARKMt. Shasta Ski Park
06:28:0001:00CADA507400FZ-LAKE SISQ REMOTE BDCSTLake Sis Grill and Brew
06:28:0000:30COMVO109100FZ DAYTIME SWPZ-CHANNEL RADIO
06:30:0001:00COMNB2904WW1 Net Newsbreak BZ100FM/WW1 NEWS
06:31:0025:08511DA000200HRR H1/T2
06:48:0003:00COMDALIVEI48:00 StopSet
06:48:0000:05COMVO101300FQUICK-ZZ100FM
06:48:0000:30CADA105000FELLIS BROOKS HONDAEllis Brooks Honda
06:48:0000:39CADA489600FRON'S FURNITURERon's Furniture
06:48:0000:05COMDA100600FZ-WW1NEWS BDZ100FM-WW1 News
06:48:0000:59COMDA290400WW1 NEWSBREAK
06:50:0000:15CADA117500FBURGER EXPRESS/WXBurger Express
06:50:0000:30COMVO112000FZ-WEATHERZ100fm Weather
06:50:0000:29ATWEAX00CZ-WX
07:00:00COMVO107300FKZRO/Legal ID CLSXZ100FM
07:00:3000:30COMDA332200FGoddard's Gold PromoSteve Goddard
07:02:0001:01COMNG2896WW1 Net A SpotWESTWOOD ONE
07:02:0026:46512DA000100HRR H2/T1
07:04:0001:01COMNF2895WW1 Net B SpotWESTWOOD ONE
07:27:0002:00COMDALIVEI27:00 StopSet
07:27:0000:05COMVO101300FQUICK-ZZ100FM
07:27:0001:00CADA103400FWATERWORKS PARKWaterworks Park
07:27:0000:59CADA576200FROUND TABLE BUFFETRound Table Buffet
07:28:0000:30COMVO109100FZ DAYTIME SWPZ-CHANNEL RADIO
07:30:0001:00COMNB2904WW1 Net Newsbreak BZ100FM/WW1 NEWS
07:31:0025:08512DA000200HRR H2/T2
07:48:0003:00COMDALIVEI48:00 StopSet
07:48:0000:05COMVO101300FQUICK-ZZ100FM
07:48:0000:30CADA105000FELLIS BROOKS HONDAEllis Brooks Honda
07:48:0000:41CADA103500FSEARS/YREKASears/Yreka
07:48:0001:00CADA104400FCEDAR LANES/ELITE RECedar Lanes/Elite Real Estate
07:50:0000:15CADA103300FNOAH'S ARK/WXNoah's Ark
07:50:0000:30COMVO112000FZ-WEATHERZ100fm Weather
07:50:0000:29ATWEAX00CZ-WX
08:00:00COMVO107300FKZRO/Legal ID CLSXZ100FM
08:00:3000:30COMDA333500FBlues Deluxe PromoBlues Deluxe
08:01:0000:05COMVO100800FGODDARD LINERGoddard's Gold Liner
08:02:0001:01COMNG2896WW1 Net A SpotWESTWOOD ONE
08:02:0023:16513DA000100Goddard's Gold H1/T1
08:04:0001:01COMNF2895WW1 Net B SpotWESTWOOD ONE
08:15:0002:00COMDALIVEI15:00 StopSet
08:15:0000:05COMVO101300FQUICK-ZZ100FM
08:15:0001:00CADA507400FZ-LAKE SISQ REMOTE BDCSTLake Sis Grill and Brew
08:16:0000:30CADA116900FTHE FIFTH SEASONThe Fifth Season
08:16:0000:35CADA102100FSTATE FARM INSURANCERuss Porterfield Insurance
08:16:0000:30COMVO109100FZ DAYTIME SWPZ-CHANNEL RADIO
08:16:0000:05COMVO100800FGODDARD LINERGoddard's Gold Liner
08:18:0013:17513DA000200Goddard's Gold H1/T2
08:30:0001:00COMNB2904WW1 Net Newsbreak BZ100FM/WW1 NEWS
08:30:0002:00COMDALIVEI30:00 StopSet
08:30:0000:05COMVO101300FQUICK-ZZ100FM
08:30:0000:30CADA107200FEDGEWOOD CUSTOM INTERIORSEdgewood Custom Interiors
08:30:0000:30CADA102800FNORTHLAND CABLE CO.Northland Communications
08:30:0000:30COMVO109100FZ DAYTIME SWPZ-CHANNEL RADIO
08:30:0000:05COMVO100800FGODDARD LINERGoddard's Gold Liner
08:32:0015:24513DA000300Goddard's Gold H1/T3
08:48:0002:30COMDALIVEI48:00 StopSet
08:48:0000:05COMVO101300FQUICK-ZZ100FM
08:48:0000:30CADA105000FELLIS BROOKS HONDAEllis Brooks Honda
08:48:0000:41CADA103500FSEARS/YREKASears/Yreka
08:50:0000:05COMDA100600FZ-WW1NEWS BDZ100FM-WW1 News
08:50:0000:59COMDA290400WW1 NEWSBREAK
08:50:0000:15CADA103000FBLACK BUTTE AUTOBlack Butte Towing
08:50:0000:30COMVO112000FZ-WEATHERZ100fm Weather
08:50:0000:29ATWEAX00CZ-WX
08:50:0000:05COMVO101300FQUICK-ZZ100FM
08:50:0000:05COMVO100800FGODDARD LINERGoddard's Gold Liner
08:52:0003:25513DA000400Goddard's Gold H1/T4
09:00:00COMVO107300FKZRO/Legal ID CLSXZ100FM
09:00:3000:28COMDA332500FFlodian Slip Promo
09:01:0000:05COMVO100800FGODDARD LINERGoddard's Gold Liner
09:02:0001:01COMNG2896WW1 Net A SpotWESTWOOD ONE
09:02:0022:26514DA000100Goddard's Gold H2/T1
09:04:0001:01COMNF2895WW1 Net B SpotWESTWOOD ONE
09:15:0002:00COMDALIVEI15:00 StopSet
09:15:0000:05COMVO101300FQUICK-ZZ100FM
09:16:0001:00CADA104000FMT.SHASTA SKI PARKMt. Shasta Ski Park
09:16:0001:00CADA104100FSISQ.COUNTY FIRE CHEIFSSisq. County Fire Cheifs
09:16:0000:30COMVO109100FZ DAYTIME SWPZ-CHANNEL RADIO
09:16:0000:05COMVO100800FGODDARD LINERGoddard's Gold Liner
09:18:0013:44514DA000200Goddard's Gold H2/T2
09:30:0001:00COMNB2904WW1 Net Newsbreak BZ100FM/WW1 NEWS
09:30:0002:00COMDALIVEI30:00 StopSet
09:30:0000:05COMVO101300FQUICK-ZZ100FM
09:30:0001:00CADA507400FZ-LAKE SISQ REMOTE BDCSTLake Sis Grill and Brew
09:30:0000:30COMVO109100FZ DAYTIME SWPZ-CHANNEL RADIO
09:30:0000:05COMVO100800FGODDARD LINERGoddard's Gold Liner
09:32:0014:37514DA000300Goddard's Gold H2/T3
09:48:0002:30COMDALIVEI48:00 StopSet
09:48:0000:05COMVO101300FQUICK-ZZ100FM
09:48:0001:00CADA103700FSAY CHEESE PIZZASay Cheese Pizza
09:50:0000:05COMDA100600FZ-WW1NEWS BDZ100FM-WW1 News
09:50:0000:59COMDA290400WW1 NEWSBREAK
09:50:0000:15CADA109900FSOUL CONNECTIONSSoul Connection
09:50:0000:30COMVO112000FZ-WEATHERZ100fm Weather
09:50:0000:29ATWEAX00CZ-WX
09:50:0000:05COMVO101300FQUICK-ZZ100FM
09:50:0000:05COMVO100800FGODDARD LINERGoddard's Gold Liner
09:52:0003:48514DA000400Goddard's Gold H2/T4
10:00:00COMVO107300FKZRO/Legal ID CLSXZ100FM
10:00:3000:26COMDA334300FOff the Record PromoUncle Joe Benson
10:01:0000:05COMVO100800FGODDARD LINERGoddard's Gold Liner
10:02:0001:01COMNG2896WW1 Net A SpotWESTWOOD ONE
10:02:0023:31515DA000100Goddard's Gold H3/T1
10:04:0001:01COMNF2895WW1 Net B SpotWESTWOOD ONE
10:15:0002:00COMDALIVEI15:00 StopSet
10:15:0000:05COMVO101300FQUICK-ZZ100FM
10:16:0000:30CADA105000FELLIS BROOKS HONDAEllis Brooks Honda
10:16:0000:30CADA116900FTHE FIFTH SEASONThe Fifth Season
10:16:0001:00CADA103400FWATERWORKS PARKWaterworks Park
10:16:0000:30COMVO109100FZ DAYTIME SWPZ-CHANNEL RADIO
10:16:0000:05COMVO100800FGODDARD LINERGoddard's Gold Liner
10:18:0016:05515DA000200Goddard's Gold H3/T2
10:30:0001:00COMNB2904WW1 Net Newsbreak BZ100FM/WW1 NEWS
10:30:0002:00COMDALIVEI30:00 StopSet
10:30:0000:05COMVO101300FQUICK-ZZ100FM
10:30:0001:01CADA503400FCROSS PET.Z-REMOTECross Petroleum
10:30:0000:30COMVO109100FZ DAYTIME SWPZ-CHANNEL RADIO
10:30:0000:05COMVO100800FGODDARD LINERGoddard's Gold Liner
10:32:0010:47515DA000300Goddard's Gold H3/T3
10:48:0002:30COMDALIVEI48:00 StopSet
10:48:0000:05COMVO101300FQUICK-ZZ100FM
10:48:0001:00CADA103700FSAY CHEESE PIZZASay Cheese Pizza
10:50:0000:05COMDA100600FZ-WW1NEWS BDZ100FM-WW1 News
10:50:0000:59COMDA290400WW1 NEWSBREAK
10:50:0000:15CADA118000FDECLERCK ENTERPRISESTaco Bell WX
10:50:0000:30COMVO112000FZ-WEATHERZ100fm Weather
10:50:0000:29ATWEAX00CZ-WX
10:50:0000:05COMVO101300FQUICK-ZZ100FM
10:50:0000:05COMVO100800FGODDARD LINERGoddard's Gold Liner
10:52:0004:04515DA000400Goddard's Gold H3/T4
11:00:00COMVO107300FKZRO/Legal ID CLSXZ100FM
11:00:3000:23COMDA332100FGet The Lead Out PromoCarol Miller
11:01:0000:07CADA490600FSISQ.FIRE CHIEFS/OTR OPNSiskiyou Count Fire Chiefs
11:01:0000:06COMVO117300FUJBENSON LNRUncle Joe Benson
11:02:0001:01COMNG2896WW1 Net A SpotWESTWOOD ONE
11:02:0018:21516DA000100Off The Record T1
11:04:0001:01COMNF2895WW1 Net B SpotWESTWOOD ONE
11:15:0002:00COMDALIVEI15:00 StopSet
11:15:0000:05COMVO101300FQUICK-ZZ100FM
11:16:0001:00CADA104100FSISQ.COUNTY FIRE CHEIFSSisq. County Fire Cheifs
11:16:0001:00CADA102400FBROOKS AUTOMOTIVEBrooks Complete Automotive
11:16:0000:30COMVO109100FZ DAYTIME SWPZ-CHANNEL RADIO
11:16:0000:06COMVO117300FUJBENSON LNRUncle Joe Benson
11:18:0012:05516DA000200Off The Record T2
11:30:0001:00COMNB2904WW1 Net Newsbreak BZ100FM/WW1 NEWS
11:35:0002:00COMDALIVEI35:00 StopSet
11:35:0000:05COMVO101300FQUICK-ZZ100FM
11:35:0000:39CADA489600FRON'S FURNITURERon's Furniture
11:35:0000:30CADA116900FTHE FIFTH SEASONThe Fifth Season
11:35:0000:30COMVO109100FZ DAYTIME SWPZ-CHANNEL RADIO
11:35:0000:06COMVO117300FUJBENSON LNRUncle Joe Benson
11:38:0012:28516DA000300Off The Record T3
11:48:0002:30COMDALIVEI48:00 StopSet
11:48:0000:05COMVO101300FQUICK-ZZ100FM
11:48:0001:00CADA104000FMT.SHASTA SKI PARKMt. Shasta Ski Park
11:48:0000:57CADA116800FLAKE SIS. GRILL+BREWLake Sis Grill+Brew
11:50:0000:12CADA568800FMT.SHASTA PASTRYMt. Shasta Pastry
11:50:0000:30COMVO112000FZ-WEATHERZ100fm Weather
11:50:0000:29ATWEAX00CZ-WX
11:50:0000:30COMVO109100FZ DAYTIME SWPZ-CHANNEL RADIO
11:50:0000:06COMVO117300FUJBENSON LNRUncle Joe Benson
11:52:0011:09516DA000400Off The Record T4
12:00:00COMVO107300FKZRO/Legal ID CLSXZ100FM
12:00:3000:57COMDA332600FUnderground Garage PromoLittle Steven Van Zandt
12:01:0000:05CADA554900FGREEN HEART GTLO OPENGreen Heart Collective
12:02:0001:01COMNG2896WW1 Net A SpotWESTWOOD ONE
12:02:0017:38522DA000100Get The Lead Out T1
12:04:0001:01COMNF2895WW1 Net B SpotWESTWOOD ONE
12:15:0002:00COMDALIVEI15:00 StopSet
12:15:0000:05COMVO101300FQUICK-ZZ100FM
12:15:0001:00CADA103400FWATERWORKS PARKWaterworks Park
12:16:0000:38CADA106800FGREEN HEART COLLECTIVEGreen Heart Collective
12:16:0000:30CADA107200FEDGEWOOD CUSTOM INTERIORSEdgewood Custom Interiors
12:16:0000:30COMVO109100FZ DAYTIME SWPZ-CHANNEL RADIO
12:18:0012:40522DA000200Get The Lead Out T2
12:30:0001:00COMNB2904WW1 Net Newsbreak BZ100FM/WW1 NEWS
12:35:0002:00COMDALIVEI35:00 StopSet
12:35:0000:05COMVO101300FQUICK-ZZ100FM
12:35:0001:00CADA104400FCEDAR LANES/ELITE RECedar Lanes/Elite Real Estate
12:35:0000:30COMVO109100FZ DAYTIME SWPZ-CHANNEL RADIO
12:38:0013:58522DA000300Get The Lead Out T3
12:48:0002:30COMDALIVEI48:00 StopSet
12:48:0000:05COMVO101300FQUICK-ZZ100FM
12:48:0001:00CADA104100FSISQ.COUNTY FIRE CHEIFSSisq. County Fire Cheifs
12:50:0000:05COMDA100600FZ-WW1NEWS BDZ100FM-WW1 News
12:50:0000:59COMDA290400WW1 NEWSBREAK
12:50:0000:15CADA117500FBURGER EXPRESS/WXBurger Express
12:50:0000:30COMVO112000FZ-WEATHERZ100fm Weather
12:50:0000:29ATWEAX00CZ-WX
12:50:0000:30COMVO109100FZ DAYTIME SWPZ-CHANNEL RADIO
12:52:0008:34522DA000400Get The Lead Out T4
13:00:00COMVO107300FKZRO/Legal ID CLSXZ100FM
13:00:3000:30COMDA333500FBlues Deluxe PromoBlues Deluxe
13:02:0001:01COMNG2896WW1 Net A SpotWESTWOOD ONE
13:02:0020:54517DA000100Underground Garage H1/T1
13:04:0001:01COMNF2895WW1 Net B SpotWESTWOOD ONE
13:25:0002:00COMDALIVEI25:00 StopSet
13:25:0000:05COMVO101300FQUICK-ZZ100FM
13:25:0001:01CADA503400FCROSS PET.Z-REMOTECross Petroleum
13:26:0001:00CADA102400FBROOKS AUTOMOTIVEBrooks Complete Automotive
13:26:0000:30COMVO109100FZ DAYTIME SWPZ-CHANNEL RADIO
13:28:0022:21517DA000200Underground Garage H1/T2
13:30:0001:00COMNB2904WW1 Net Newsbreak BZ100FM/WW1 NEWS
13:40:0002:00COMDALIVEI40:00 StopSet
13:40:0000:05COMVO101300FQUICK-ZZ100FM
13:40:0001:00CADA104000FMT.SHASTA SKI PARKMt. Shasta Ski Park
13:40:0000:30COMVO109100FZ DAYTIME SWPZ-CHANNEL RADIO
13:42:0025:24517DA000300Underground Garage H1/T3
13:48:0002:30COMDALIVEI48:00 StopSet
13:48:0000:05COMVO101300FQUICK-ZZ100FM
13:48:0000:57CADA116800FLAKE SIS. GRILL+BREWLake Sis Grill+Brew
13:50:0000:05COMDA100600FZ-WW1NEWS BDZ100FM-WW1 News
13:50:0000:59COMDA290400WW1 NEWSBREAK
13:50:0000:15CADA104500FLAKE SHASTINA GOLF/WXLake Shastina Golf Resort
13:50:0000:30COMVO112000FZ-WEATHERZ100fm Weather
13:50:0000:29ATWEAX00CZ-WX
14:00:00COMVO107300FKZRO/Legal ID CLSXZ100FM
14:00:3000:28COMDA332500FFlodian Slip Promo
14:02:0001:01COMNG2896WW1 Net A SpotWESTWOOD ONE
14:02:0021:30518DA000100Underground Garage H2/T1
14:04:0001:01COMNF2895WW1 Net B SpotWESTWOOD ONE
14:25:0002:30COMDALIVEI25:00 StopSet
14:25:0000:05COMVO101300FQUICK-ZZ100FM
14:25:0000:59CADA576200FROUND TABLE BUFFETRound Table Buffet
14:26:0001:00CADA104100FSISQ.COUNTY FIRE CHEIFSSisq. County Fire Cheifs
14:26:0000:30COMVO109100FZ DAYTIME SWPZ-CHANNEL RADIO
14:28:0022:13518DA000200Underground Garage H2/T2
14:30:0001:00COMNB2904WW1 Net Newsbreak BZ100FM/WW1 NEWS
14:48:0003:00COMDALIVEI48:00 StopSet
14:48:0000:05COMVO101300FQUICK-ZZ100FM
14:48:0001:00CADA104400FCEDAR LANES/ELITE RECedar Lanes/Elite Real Estate
14:48:0000:30CADA107000FPACIFICORPPacificorp
14:50:0000:05COMDA100600FZ-WW1NEWS BDZ100FM-WW1 News
14:50:0000:59COMDA290400WW1 NEWSBREAK
14:50:0000:15CADA118000FDECLERCK ENTERPRISESTaco Bell WX
14:50:0000:30COMVO112000FZ-WEATHERZ100fm Weather
14:50:0000:29ATWEAX00CZ-WX
15:00:00COMVO107300FKZRO/Legal ID CLSXZ100FM
15:00:3000:30COMDA333500FBlues Deluxe PromoBlues Deluxe
15:01:0000:10COMVO111500FF.SLIP LINERFloydian Slip Liners
15:02:0001:01COMNG2896WW1 Net A SpotWESTWOOD ONE
15:02:0020:29519DA000100Floydian Slip T1
15:04:0001:01COMNF2895WW1 Net B SpotWESTWOOD ONE
15:15:0002:30COMDALIVEI15:00 StopSet
15:15:0000:05COMVO101300FQUICK-ZZ100FM
15:16:0001:00CADA102400FBROOKS AUTOMOTIVEBrooks Complete Automotive
15:16:0001:00CADA507400FZ-LAKE SISQ REMOTE BDCSTLake Sis Grill and Brew
15:16:0000:30COMVO109100FZ DAYTIME SWPZ-CHANNEL RADIO
15:16:0000:10COMVO111500FF.SLIP LINERFloydian Slip Liners
15:17:0014:38519DA000200Floydian Slip T2
15:30:0001:00COMNB2904WW1 Net Newsbreak BZ100FM/WW1 NEWS
15:30:0001:30COMDALIVEI30:00 StopSet
15:30:0000:05COMVO101300FQUICK-ZZ100FM
15:30:0000:60CADA102200FCOSCollege of the Siskiyous
15:30:0000:30COMVO109100FZ DAYTIME SWPZ-CHANNEL RADIO
15:30:0000:10COMVO111500FF.SLIP LINERFloydian Slip Liners
15:31:0009:22519DA000300Floydian Slip T3
15:48:0002:30COMDALIVEI48:00 StopSet
15:48:0000:05COMVO101300FQUICK-ZZ100FM
15:48:0000:30CADA105000FELLIS BROOKS HONDAEllis Brooks Honda
15:48:0000:30CADA116900FTHE FIFTH SEASONThe Fifth Season
15:50:0000:05COMDA100600FZ-WW1NEWS BDZ100FM-WW1 News
15:50:0000:59COMDA290400WW1 NEWSBREAK
15:50:0000:15CADA109900FSOUL CONNECTIONSSoul Connection
15:50:0000:30COMVO112000FZ-WEATHERZ100fm Weather
15:50:0000:29ATWEAX00CZ-WX
15:50:0000:30COMVO109100FZ DAYTIME SWPZ-CHANNEL RADIO
15:52:0008:56519DA000400Floydian Slip T4
16:00:00COMVO107300FKZRO/Legal ID CLSXZ100FM
16:00:3000:47COMDA109300FZSaturday PromoZ100FM
16:02:0001:01COMNG2896WW1 Net A SpotWESTWOOD ONE
16:02:0020:59520DA000100Blues Deluxe T1
16:04:0001:01COMNF2895WW1 Net B SpotWESTWOOD ONE
16:15:0002:30COMDALIVEI15:00 StopSet
16:15:0000:05COMVO101300FQUICK-ZZ100FM
16:16:0001:00CADA104000FMT.SHASTA SKI PARKMt. Shasta Ski Park
16:16:0001:00CADA104400FCEDAR LANES/ELITE RECedar Lanes/Elite Real Estate
16:16:0000:30COMVO109100FZ DAYTIME SWPZ-CHANNEL RADIO
16:18:0019:07520DA000200Blues Deluxe T2
16:30:0001:00COMNB2904WW1 Net Newsbreak BZ100FM/WW1 NEWS
16:30:0001:30COMDALIVEI30:00 StopSet
16:30:0000:05COMVO101300FQUICK-ZZ100FM
16:30:0000:30CADA107200FEDGEWOOD CUSTOM INTERIORSEdgewood Custom Interiors
16:30:0000:35CADA102100FSTATE FARM INSURANCERuss Porterfield Insurance
16:30:0000:30COMVO109100FZ DAYTIME SWPZ-CHANNEL RADIO
16:33:0007:13520DA000300Blues Deluxe T3
16:48:0003:00COMDALIVEI48:00 StopSet
16:48:0000:05COMVO101300FQUICK-ZZ100FM
16:48:0001:00CADA102400FBROOKS AUTOMOTIVEBrooks Complete Automotive
16:48:0000:60CADA102200FCOSCollege of the Siskiyous
16:50:0000:12CADA573000FSHERLOCK MUSIC SHOPSherlock Music
16:50:0000:30COMVO112000FZ-WEATHERZ100fm Weather
16:50:0000:29ATWEAX00CZ-WX
16:50:0000:30COMVO109100FZ DAYTIME SWPZ-CHANNEL RADIO
16:52:0005:36520DA000400Blues Deluxe T4
17:00:00COMVO107300FKZRO/Legal ID CLSXZ100FM
17:00:3000:47COMDA109300FSat.Promo/Sun PMZ100FM
17:02:0001:01COMNG2896WW1 Net A SpotWESTWOOD ONE
17:02:0026:50511DA000100HRR H1/T1
17:04:0001:01COMNF2895WW1 Net B SpotWESTWOOD ONE
17:27:0002:00COMDALIVEI27:00 StopSet
17:27:0000:05COMVO101300FQUICK-ZZ100FM
17:27:0001:01CADA503400FCROSS PET.Z-REMOTECross Petroleum
17:27:0001:00CADA103400FWATERWORKS PARKWaterworks Park
17:28:0000:30COMVO109100FZ DAYTIME SWPZ-CHANNEL RADIO
17:30:0001:00COMNB2904WW1 Net Newsbreak BZ100FM/WW1 NEWS
17:31:0025:08511DA000200HRR H1/T2
17:48:0003:00COMDALIVEI48:00 StopSet
17:48:0000:05COMVO101300FQUICK-ZZ100FM
17:48:0000:59CADA576200FROUND TABLE BUFFETRound Table Buffet
17:50:0000:05COMDA100600FZ-WW1NEWS BDZ100FM-WW1 News
17:50:0000:59COMDA290400WW1 NEWSBREAK
17:50:0000:15CADA117500FBURGER EXPRESS/WXBurger Express
17:50:0000:30COMVO112000FZ-WEATHERZ100fm Weather
17:50:0000:29ATWEAX00CZ-WX
18:00:00COMVO107300FKZRO/Legal ID CLSXZ100FM
18:00:3000:47COMDA109300FSat.Promo/Sun PMZ100FM
18:02:0001:01COMNG2896WW1 Net A SpotWESTWOOD ONE
18:02:0026:46512DA000100HRR H2/T1
18:04:0001:01COMNF2895WW1 Net B SpotWESTWOOD ONE
18:27:0002:00COMDALIVEI27:00 StopSet
18:27:0000:05COMVO101300FQUICK-ZZ100FM
18:27:0001:00CADA104100FSISQ.COUNTY FIRE CHEIFSSisq. County Fire Cheifs
18:27:0000:30CADA107000FPACIFICORPPacificorp
18:27:0001:00CADA104400FCEDAR LANES/ELITE RECedar Lanes/Elite Real Estate
18:28:0000:30COMVO109100FZ DAYTIME SWPZ-CHANNEL RADIO
18:30:0001:00COMNB2904WW1 Net Newsbreak BZ100FM/WW1 NEWS
18:31:0025:08512DA000200HRR H2/T2
18:48:0003:00COMDALIVEI48:00 StopSet
18:48:0000:05COMVO101300FQUICK-ZZ100FM
18:48:0001:00CADA102400FBROOKS AUTOMOTIVEBrooks Complete Automotive
18:50:0000:05COMDA100600FZ-WW1NEWS BDZ100FM-WW1 News
18:50:0000:59COMDA290400WW1 NEWSBREAK
18:50:0000:15CADA109900FSOUL CONNECTIONSSoul Connection
18:50:0000:30COMVO112000FZ-WEATHERZ100fm Weather
18:50:0000:29ATWEAX00CZ-WX
19:00:00COMVO107300FKZRO/Legal ID CLSXZ100FM
19:00:3000:47COMDA109300FSat.Promo/Sun PMZ100FM
19:01:0000:06COMVO117300FUJBENSON LNRUncle Joe Benson
19:02:0001:01COMNG2896WW1 Net A SpotWESTWOOD ONE
19:02:0018:21516DA000100Off The Record T1
19:04:0001:01COMNF2895WW1 Net B SpotWESTWOOD ONE
19:15:0002:00COMDALIVEI15:00 StopSet
19:15:0000:05COMVO101300FQUICK-ZZ100FM
19:15:0001:00CADA507400FZ-LAKE SISQ REMOTE BDCSTLake Sis Grill and Brew
19:16:0000:30CADA116900FTHE FIFTH SEASONThe Fifth Season
19:16:0000:30CADA102800FNORTHLAND CABLE CO.Northland Communications
19:16:0000:30COMVO109100FZ DAYTIME SWPZ-CHANNEL RADIO
19:16:0000:06COMVO117300FUJBENSON LNRUncle Joe Benson
19:18:0012:05516DA000200Off The Record T2
19:30:0001:00COMNB2904WW1 Net Newsbreak BZ100FM/WW1 NEWS
19:35:0002:00COMDALIVEI35:00 StopSet
19:35:0000:05COMVO101300FQUICK-ZZ100FM
19:35:0000:30CADA105000FELLIS BROOKS HONDAEllis Brooks Honda
19:35:0000:38CADA106800FGREEN HEART COLLECTIVEGreen Heart Collective
19:35:0000:30COMVO109100FZ DAYTIME SWPZ-CHANNEL RADIO
19:35:0000:06COMVO117300FUJBENSON LNRUncle Joe Benson
19:38:0012:28516DA000300Off The Record T3
19:48:0002:30COMDALIVEI48:00 StopSet
19:48:0000:05COMVO101300FQUICK-ZZ100FM
19:48:0001:00CADA103400FWATERWORKS PARKWaterworks Park
19:48:0001:00CADA103700FSAY CHEESE PIZZASay Cheese Pizza
19:50:0000:12CADA573000FSHERLOCK MUSIC SHOPSherlock Music
19:50:0000:30COMVO112000FZ-WEATHERZ100fm Weather
19:50:0000:29ATWEAX00CZ-WX
19:50:0000:30COMVO109100FZ DAYTIME SWPZ-CHANNEL RADIO
19:50:0000:06COMVO117300FUJBENSON LNRUncle Joe Benson
19:52:0011:09516DA000400Off The Record T4
20:00:00COMVO107300FKZRO/Legal ID CLSXZ100FM
20:00:3000:47COMDA109300FSat.Promo/Sun PMZ100FM
20:02:0001:01COMNG2896WW1 Net A SpotWESTWOOD ONE
20:02:0017:38522DA000100Get The Lead Out T1
20:04:0001:01COMNF2895WW1 Net B SpotWESTWOOD ONE
20:15:0002:00COMDALIVEI15:00 StopSet
20:15:0000:05COMVO101300FQUICK-ZZ100FM
20:15:0001:01CADA503400FCROSS PET.Z-REMOTECross Petroleum
20:16:0001:00CADA104000FMT.SHASTA SKI PARKMt. Shasta Ski Park
20:16:0000:30COMVO109100FZ DAYTIME SWPZ-CHANNEL RADIO
20:18:0012:40522DA000200Get The Lead Out T2
20:30:0001:00COMNB2904WW1 Net Newsbreak BZ100FM/WW1 NEWS
20:35:0002:00COMDALIVEI35:00 StopSet
20:35:0000:05COMVO101300FQUICK-ZZ100FM
20:35:0000:30CADA105000FELLIS BROOKS HONDAEllis Brooks Honda
20:35:0000:39CADA489600FRON'S FURNITURERon's Furniture
20:35:0000:30COMVO109100FZ DAYTIME SWPZ-CHANNEL RADIO
20:38:0013:58522DA000300Get The Lead Out T3
20:48:0002:30COMDALIVEI48:00 StopSet
20:48:0000:05COMVO101300FQUICK-ZZ100FM
20:48:0001:00CADA507400FZ-LAKE SISQ REMOTE BDCSTLake Sis Grill and Brew
20:48:0000:30CADA107200FEDGEWOOD CUSTOM INTERIORSEdgewood Custom Interiors
20:50:0000:05COMDA100600FZ-WW1NEWS BDZ100FM-WW1 News
20:50:0000:59COMDA290400WW1 NEWSBREAK
20:50:0000:15CADA118000FDECLERCK ENTERPRISESTaco Bell WX
20:50:0000:30COMVO112000FZ-WEATHERZ100fm Weather
20:50:0000:29ATWEAX00CZ-WX
20:50:0000:30COMVO109100FZ DAYTIME SWPZ-CHANNEL RADIO
20:52:0008:34522DA000400Get The Lead Out T4
21:00:00COMVO107300FKZRO/Legal ID CLSXZ100FM
21:00:3000:47COMDA109300FSat.Promo/Sun PMZ100FM
21:02:0001:01COMNG2896WW1 Net A SpotWESTWOOD ONE
21:02:0020:54517DA000100Underground Garage H1/T1
21:04:0001:01COMNF2895WW1 Net B SpotWESTWOOD ONE
21:25:0002:00COMDALIVEI25:00 StopSet
21:25:0000:05COMVO101300FQUICK-ZZ100FM
21:25:0001:01CADA503400FCROSS PET.Z-REMOTECross Petroleum
21:26:0001:00CADA104000FMT.SHASTA SKI PARKMt. Shasta Ski Park
21:26:0000:30COMVO109100FZ DAYTIME SWPZ-CHANNEL RADIO
21:28:0022:21517DA000200Underground Garage H1/T2
21:30:0001:00COMNB2904WW1 Net Newsbreak BZ100FM/WW1 NEWS
21:40:0002:30COMDALIVEI40:00 StopSet
21:40:0000:05COMVO101300FQUICK-ZZ100FM
21:40:0000:41CADA103500FSEARS/YREKASears/Yreka
21:40:0000:30CADA107000FPACIFICORPPacificorp
21:40:0000:30COMVO109100FZ DAYTIME SWPZ-CHANNEL RADIO
21:42:0025:24517DA000300Underground Garage H1/T3
21:48:0002:30COMDALIVEI48:00 StopSet
21:48:0000:05COMVO101300FQUICK-ZZ100FM
21:48:0000:57CADA116800FLAKE SIS. GRILL+BREWLake Sis Grill+Brew
21:48:0001:00CADA507400FZ-LAKE SISQ REMOTE BDCSTLake Sis Grill and Brew
21:50:0000:15CADA118000FDECLERCK ENTERPRISESTaco Bell WX
21:50:0000:30COMVO112000FZ-WEATHERZ100fm Weather
21:50:0000:29ATWEAX00CZ-WX
22:00:00COMVO107300FKZRO/Legal ID CLSXZ100FM
22:00:3000:47COMDA109300FSat.Promo/Sun PMZ100FM
22:02:0001:01COMNG2896WW1 Net A SpotWESTWOOD ONE
22:02:0021:30518DA000100Underground Garage H2/T1
22:04:0001:01COMNF2895WW1 Net B SpotWESTWOOD ONE
22:25:0002:30COMDALIVEI25:00 StopSet
22:25:0000:05COMVO101300FQUICK-ZZ100FM
22:25:0000:39CADA489600FRON'S FURNITURERon's Furniture
22:26:0001:00CADA103400FWATERWORKS PARKWaterworks Park
22:26:0001:01CADA503400FCROSS PET.Z-REMOTECross Petroleum
22:26:0000:30COMVO109100FZ DAYTIME SWPZ-CHANNEL RADIO
22:28:0022:13518DA000200Underground Garage H2/T2
22:30:0001:00COMNB2904WW1 Net Newsbreak BZ100FM/WW1 NEWS
22:48:0003:00COMDALIVEI48:00 StopSet
22:48:0000:05COMVO101300FQUICK-ZZ100FM
22:48:0001:00CADA103700FSAY CHEESE PIZZASay Cheese Pizza
22:48:0000:38CADA106800FGREEN HEART COLLECTIVEGreen Heart Collective
22:50:0000:05COMDA100600FZ-WW1NEWS BDZ100FM-WW1 News
22:50:0000:59COMDA290400WW1 NEWSBREAK
22:50:0000:15CADA109900FSOUL CONNECTIONSSoul Connection
22:50:0000:30COMVO112000FZ-WEATHERZ100fm Weather
22:50:0000:29ATWEAX00CZ-WX
23:00:00COMVO107300FKZRO/Legal ID CLSXZ100FM
23:00:3000:47COMDA109300FSat.Promo/Sun PMZ100FM
23:01:0000:10COMVO111500FF.SLIP LINERFloydian Slip Liners
23:02:0001:01COMNG2896WW1 Net A SpotWESTWOOD ONE
23:02:0020:29519DA000100Floydian Slip T1
23:04:0001:01COMNF2895WW1 Net B SpotWESTWOOD ONE
23:15:0002:30COMDALIVEI15:00 StopSet
23:15:0000:05COMVO101300FQUICK-ZZ100FM
23:15:0001:00CADA507400FZ-LAKE SISQ REMOTE BDCSTLake Sis Grill and Brew
23:15:0001:00CADA102400FBROOKS AUTOMOTIVEBrooks Complete Automotive
23:16:0000:30COMVO109100FZ DAYTIME SWPZ-CHANNEL RADIO
23:16:0000:10COMVO111500FF.SLIP LINERFloydian Slip Liners
23:17:0014:38519DA000200Floydian Slip T2
23:30:0001:00COMNB2904WW1 Net Newsbreak BZ100FM/WW1 NEWS
23:30:0001:30COMDALIVEI30:00 StopSet
23:30:0000:05COMVO101300FQUICK-ZZ100FM
23:30:0001:00CADA104100FSISQ.COUNTY FIRE CHEIFSSisq. County Fire Cheifs
23:30:0000:41CADA103500FSEARS/YREKASears/Yreka
23:30:0000:30COMVO109100FZ DAYTIME SWPZ-CHANNEL RADIO
23:30:0000:10COMVO111500FF.SLIP LINERFloydian Slip Liners
23:31:0009:22519DA000300Floydian Slip T3
23:48:0002:30COMDALIVEI48:00 StopSet
23:48:0000:05COMVO101300FQUICK-ZZ100FM
23:48:0000:57CADA116800FLAKE SIS. GRILL+BREWLake Sis Grill+Brew
23:48:0001:01CADA503400FCROSS PET.Z-REMOTECross Petroleum
23:50:0000:12CADA573000FSHERLOCK MUSIC SHOPSherlock Music
23:50:0000:30COMVO112000FZ-WEATHERZ100fm Weather
23:50:0000:29ATWEAX00CZ-WX
23:50:0000:30COMVO109100FZ DAYTIME SWPZ-CHANNEL RADIO
23:52:0008:56519DA000400Floydian Slip T4
23:59:00COMVO107300FKZRO/Legal ID CLSXZ100FM